Calgary, Canada
Current Conditions -  °F | °C
As of 8:00 PM on Monday 20 Oct 2014 (Local Time) from CYYC Reporting Station
Scattered Clouds Scattered Clouds  
Wind Chill: 16°   Ceiling: Unl
Heat Index: 16°   Visibility: 15mi
Dew Point:   Wind: 7mph
Humidity: 34%   Direction: 160°SSE
Pressure: 29.61"   Gusts: NA
Location:  51.05°N, 114.06°W
Report Text: CYYC 210200Z 16006KT 15SM FEW075 FEW210 SCT250 16/00 A2961 RMK CU1CI1CS2 CU TR SLP040 DENSITY ALT 4900FT
Loading
Personal Weather Stations






























Interactive Weather Map New forecast layout! Learn more

10-Day Weather Forecast

Advertisements
Track Severe Weather on mobile